createdAt,value
2023-03-13T00:00:38.792Z,46.47
2023-03-13T00:03:07.295Z,45.55
2023-03-13T00:05:38.122Z,44.67
2023-03-13T00:08:06.354Z,44.08
2023-03-13T00:10:34.501Z,43.78
2023-03-13T00:13:02.561Z,43.03
2023-03-13T00:15:30.706Z,43.42
2023-03-13T00:17:58.787Z,44.08
2023-03-13T00:20:26.905Z,41.95
2023-03-13T00:22:56.420Z,42.55
2023-03-13T00:25:24.494Z,42.85
2023-03-13T00:27:52.629Z,43.15
2023-03-13T00:30:20.842Z,41.05
2023-03-13T00:32:49.060Z,41.65
2023-03-13T00:35:17.461Z,40.25
2023-03-13T00:37:45.635Z,38.40
2023-03-13T00:40:15.560Z,39.63
2023-03-13T00:42:43.681Z,39.47
2023-03-13T00:45:12.328Z,39.25
2023-03-13T00:47:41.210Z,38.30
2023-03-13T00:50:11.405Z,38.95
2023-03-13T00:52:39.505Z,38.67
2023-03-13T00:55:10.510Z,36.53
2023-03-13T00:57:40.093Z,37.67
2023-03-13T01:00:09.585Z,36.80
2023-03-13T01:02:43.053Z,35.90
2023-03-13T01:05:13.354Z,35.03
2023-03-13T01:07:41.548Z,36.42
2023-03-13T01:10:10.481Z,35.47
2023-03-13T01:12:39.940Z,34.92
2023-03-13T01:15:09.921Z,35.05
2023-03-13T01:17:38.093Z,34.20
2023-03-13T01:20:08.023Z,34.58
2023-03-13T01:22:37.149Z,34.92
2023-03-13T01:25:05.664Z,34.30
2023-03-13T01:27:33.782Z,33.28
2023-03-13T01:30:03.349Z,32.20
2023-03-13T01:32:34.181Z,33.13
2023-03-13T01:35:03.787Z,31.83
2023-03-13T01:37:31.923Z,31.80
2023-03-13T01:40:00.015Z,31.60
2023-03-13T01:42:28.122Z,31.70
2023-03-13T01:44:56.948Z,30.10
2023-03-13T01:47:28.077Z,30.30
2023-03-13T01:50:07.140Z,29.75
2023-03-13T01:52:49.602Z,29.35
2023-03-13T01:55:28.876Z,28.80
2023-03-13T01:57:57.113Z,29.92
2023-03-13T02:00:27.637Z,29.88
2023-03-13T02:02:58.391Z,28.13
2023-03-13T02:05:27.439Z,27.80
2023-03-13T02:07:56.681Z,28.02
2023-03-13T02:10:24.941Z,27.48
2023-03-13T02:12:53.105Z,28.15
2023-03-13T02:15:23.742Z,27.15
2023-03-13T02:17:52.628Z,26.92
2023-03-13T02:20:22.951Z,26.10
2023-03-13T02:22:55.290Z,25.35
2023-03-13T02:25:33.744Z,26.23
2023-03-13T02:28:02.877Z,24.95
2023-03-13T02:30:33.264Z,25.60
2023-03-13T02:33:01.564Z,24.58
2023-03-13T02:35:29.862Z,24.95
2023-03-13T02:37:59.180Z,24.50
2023-03-13T02:40:29.080Z,25.13
2023-03-13T02:43:01.070Z,23.90
2023-03-13T02:45:30.153Z,24.00
2023-03-13T02:47:58.233Z,22.40
2023-03-13T02:50:26.402Z,22.95
2023-03-13T02:52:55.756Z,24.20
2023-03-13T02:55:25.729Z,22.30
2023-03-13T02:57:53.859Z,22.60
2023-03-13T03:00:26.762Z,22.95
2023-03-13T03:02:56.602Z,20.95
2023-03-13T03:05:24.819Z,22.42
2023-03-13T03:07:53.075Z,21.55
2023-03-13T03:10:21.401Z,21.55
2023-03-13T03:12:49.911Z,21.38
2023-03-13T03:15:18.332Z,20.90
2023-03-13T03:17:50.352Z,20.95
2023-03-13T03:20:18.650Z,20.27
2023-03-13T03:22:46.881Z,21.00
2023-03-13T03:25:15.146Z,19.80
2023-03-13T03:27:43.637Z,19.92
2023-03-13T03:30:13.185Z,19.92
2023-03-13T03:32:41.565Z,20.27
2023-03-13T03:35:11.354Z,19.08
2023-03-13T03:37:39.810Z,20.10
2023-03-13T03:40:09.872Z,19.13
2023-03-13T03:42:38.269Z,18.58
2023-03-13T03:45:07.186Z,18.88
2023-03-13T03:47:35.293Z,18.55
2023-03-13T03:50:04.576Z,17.88
2023-03-13T03:52:42.509Z,18.58
2023-03-13T03:55:11.168Z,18.92
2023-03-13T03:57:39.414Z,17.98
2023-03-13T04:00:15.938Z,17.58
2023-03-13T04:02:49.592Z,17.80
2023-03-13T04:05:18.050Z,16.30
2023-03-13T04:07:47.623Z,16.75
2023-03-13T04:10:15.822Z,17.10
2023-03-13T04:12:46.126Z,17.00
2023-03-13T04:15:14.598Z,16.60
2023-03-13T04:17:43.274Z,16.55
2023-03-13T04:20:13.770Z,16.30
2023-03-13T04:22:42.670Z,16.08
2023-03-13T04:25:12.444Z,16.27
2023-03-13T04:27:40.599Z,16.05
2023-03-13T04:30:10.811Z,15.80
2023-03-13T04:32:57.623Z,15.25
2023-03-13T04:35:52.220Z,14.68
2023-03-13T04:38:26.364Z,15.07
2023-03-13T04:40:58.405Z,15.38
2023-03-13T04:43:45.837Z,14.13
2023-03-13T04:46:34.482Z,13.40
2023-03-13T04:49:35.066Z,14.20
2023-03-13T04:52:16.805Z,13.68
2023-03-13T04:54:48.199Z,14.00
2023-03-13T04:57:31.708Z,13.85
2023-03-13T05:00:20.564Z,12.95
2023-03-13T05:03:08.378Z,13.00
2023-03-13T05:05:56.826Z,12.73
2023-03-13T05:08:59.948Z,12.93
2023-03-13T05:11:53.404Z,12.95
2023-03-13T05:14:31.592Z,12.85
2023-03-13T05:17:13.692Z,14.35
2023-03-13T05:20:11.259Z,16.25
2023-03-13T05:23:14.790Z,16.27
2023-03-13T05:26:03.984Z,17.13
2023-03-13T05:28:32.236Z,23.85
2023-03-13T05:31:20.293Z,23.83
2023-03-13T05:34:02.182Z,27.55
2023-03-13T05:36:42.458Z,30.73
2023-03-13T05:39:29.085Z,28.85
2023-03-13T05:42:19.802Z,23.08
2023-03-13T05:45:04.721Z,26.17
2023-03-13T05:48:09.809Z,30.10
2023-03-13T05:50:41.026Z,26.65
2023-03-13T05:53:38.279Z,26.95
2023-03-13T05:56:21.144Z,27.75
2023-03-13T05:59:01.270Z,27.30
2023-03-13T06:01:49.324Z,26.60
2023-03-13T06:04:39.456Z,27.27
2023-03-13T06:07:07.698Z,29.35
2023-03-13T06:09:36.010Z,29.40
2023-03-13T06:12:05.045Z,33.53
2023-03-13T06:14:33.144Z,33.05
2023-03-13T06:17:30.331Z,34.60
2023-03-13T06:19:59.816Z,35.33
2023-03-13T06:22:27.933Z,42.05
2023-03-13T06:24:56.457Z,49.22
2023-03-13T06:27:24.550Z,42.67
2023-03-13T06:29:52.619Z,49.70
2023-03-13T06:32:20.794Z,42.80
2023-03-13T06:34:48.976Z,40.55
2023-03-13T06:37:18.467Z,42.90
2023-03-13T06:39:46.595Z,44.92
2023-03-13T06:42:14.731Z,45.83
2023-03-13T06:44:42.830Z,45.75
2023-03-13T06:47:11.783Z,46.80
2023-03-13T06:49:41.160Z,42.83
2023-03-13T06:52:09.603Z,46.70
2023-03-13T06:54:39.282Z,47.30
2023-03-13T06:57:07.493Z,49.22
2023-03-13T06:59:35.675Z,47.83
2023-03-13T07:02:03.889Z,47.70
2023-03-13T07:04:32.078Z,49.05
2023-03-13T07:07:00.300Z,48.33
2023-03-13T07:09:28.401Z,47.75
2023-03-13T07:11:58.827Z,47.17
2023-03-13T07:14:26.942Z,46.95
2023-03-13T07:16:55.137Z,47.33
2023-03-13T07:19:23.275Z,47.58
2023-03-13T07:21:53.119Z,46.65
2023-03-13T07:24:21.325Z,46.78
2023-03-13T07:27:04.132Z,47.03
2023-03-13T07:29:36.526Z,46.53
2023-03-13T07:32:04.966Z,46.40
2023-03-13T07:34:33.209Z,46.28
2023-03-13T07:37:01.440Z,48.92
2023-03-13T07:39:29.572Z,50.83
2023-03-13T07:41:57.671Z,53.55
2023-03-13T07:44:25.871Z,50.35
2023-03-13T07:46:55.372Z,50.20
2023-03-13T07:49:23.471Z,51.75
2023-03-13T07:51:51.575Z,54.00
2023-03-13T07:54:19.637Z,52.30
2023-03-13T07:56:47.747Z,53.17
2023-03-13T07:59:15.979Z,53.30
2023-03-13T08:01:44.142Z,52.42
2023-03-13T08:04:14.996Z,53.90
2023-03-13T08:06:43.280Z,54.10
2023-03-13T08:09:11.402Z,53.33
2023-03-13T08:11:40.434Z,53.40
2023-03-13T08:14:08.620Z,54.70
2023-03-13T08:16:36.734Z,54.28
2023-03-13T08:19:06.294Z,56.30
2023-03-13T08:21:36.447Z,56.90
2023-03-13T08:24:07.089Z,55.85
2023-03-13T08:26:36.149Z,55.47
2023-03-13T08:29:05.622Z,57.70
2023-03-13T08:31:34.548Z,56.30
2023-03-13T08:34:03.074Z,53.90
2023-03-13T08:36:33.093Z,54.78
2023-03-13T08:39:03.401Z,53.92
2023-03-13T08:41:34.008Z,58.35
2023-03-13T08:44:02.252Z,57.30
2023-03-13T08:46:30.854Z,61.17
2023-03-13T08:48:59.172Z,61.72
2023-03-13T08:51:28.192Z,61.80
2023-03-13T08:53:57.057Z,61.78
2023-03-13T08:56:28.108Z,63.38
2023-03-13T08:58:57.962Z,61.50
2023-03-13T09:01:27.270Z,60.88
2023-03-13T09:03:55.656Z,61.92
2023-03-13T09:06:24.025Z,63.25
2023-03-13T09:08:52.296Z,63.58
2023-03-13T09:11:22.181Z,62.92
2023-03-13T09:13:52.230Z,62.58
2023-03-13T09:16:21.141Z,62.30
2023-03-13T09:18:49.394Z,62.08
2023-03-13T09:21:18.816Z,64.38
2023-03-13T09:23:47.571Z,63.88
2023-03-13T09:26:15.949Z,62.97
2023-03-13T09:28:44.411Z,61.45
2023-03-13T09:31:15.045Z,61.75
2023-03-13T09:33:43.461Z,62.92
2023-03-13T09:36:11.866Z,62.03
2023-03-13T09:38:40.185Z,61.55
2023-03-13T09:41:17.184Z,62.55
2023-03-13T09:43:48.116Z,58.88
2023-03-13T09:46:19.913Z,61.58
2023-03-13T09:48:49.796Z,60.28
2023-03-13T09:51:20.347Z,59.85
2023-03-13T09:53:51.244Z,57.58
2023-03-13T09:56:21.043Z,60.28
2023-03-13T09:58:53.100Z,58.03
2023-03-13T10:01:25.988Z,57.53
2023-03-13T10:04:00.081Z,58.88
2023-03-13T10:06:28.448Z,57.45
2023-03-13T10:09:01.250Z,57.13
2023-03-13T10:11:32.071Z,56.63
2023-03-13T10:14:02.543Z,57.00
2023-03-13T10:16:33.666Z,57.90
2023-03-13T10:19:01.833Z,55.65
2023-03-13T10:21:33.847Z,55.22
2023-03-13T10:24:04.040Z,55.97
2023-03-13T10:26:34.127Z,52.78
2023-03-13T10:29:03.955Z,54.38
2023-03-13T10:31:34.634Z,55.33
2023-03-13T10:34:08.679Z,52.33
2023-03-13T10:36:41.324Z,53.80
2023-03-13T10:39:09.689Z,53.05
2023-03-13T10:41:38.603Z,51.53
2023-03-13T10:44:08.393Z,52.83
2023-03-13T10:46:41.854Z,51.35
2023-03-13T10:49:16.170Z,49.92
2023-03-13T10:51:48.449Z,51.67
2023-03-13T10:54:17.715Z,49.88
2023-03-13T10:56:45.894Z,50.95
2023-03-13T10:59:22.401Z,49.95
2023-03-13T11:01:52.063Z,49.75
2023-03-13T11:04:21.643Z,49.58
2023-03-13T11:06:52.401Z,47.50
2023-03-13T11:09:20.533Z,47.33
2023-03-13T11:11:49.688Z,46.55
2023-03-13T11:14:19.058Z,46.78
2023-03-13T11:16:52.232Z,45.75
2023-03-13T11:19:30.829Z,45.78
2023-03-13T11:22:05.827Z,45.35
2023-03-13T11:24:37.078Z,45.28
2023-03-13T11:27:08.215Z,44.30
2023-03-13T11:29:40.609Z,44.03
2023-03-13T11:32:16.063Z,42.72
2023-03-13T11:34:46.205Z,42.50
2023-03-13T11:37:15.288Z,42.13
2023-03-13T11:39:52.316Z,42.65
2023-03-13T11:42:37.180Z,41.25
2023-03-13T11:45:08.148Z,42.15
2023-03-13T11:47:52.330Z,40.67
2023-03-13T11:50:27.521Z,41.35
2023-03-13T11:53:03.981Z,40.60
2023-03-13T11:55:39.390Z,42.97
2023-03-13T11:58:22.352Z,41.25
2023-03-13T12:00:53.588Z,42.97
2023-03-13T12:03:26.228Z,42.60
2023-03-13T12:05:55.233Z,42.15
2023-03-13T12:08:26.571Z,42.40
2023-03-13T12:11:00.261Z,43.30
2023-03-13T12:13:29.864Z,43.55
2023-03-13T12:15:58.635Z,43.95
2023-03-13T12:18:30.954Z,43.20
2023-03-13T12:21:01.654Z,44.63
2023-03-13T12:23:34.437Z,43.10
2023-03-13T12:26:04.844Z,43.47
2023-03-13T12:28:36.581Z,42.75
2023-03-13T12:31:10.396Z,43.72
2023-03-13T12:33:43.805Z,45.13
2023-03-13T12:36:14.765Z,49.72
2023-03-13T12:38:45.263Z,50.17
2023-03-13T12:41:21.058Z,50.85
2023-03-13T12:44:07.166Z,49.15
2023-03-13T12:46:46.503Z,49.60
2023-03-13T12:49:53.367Z,47.70
2023-03-13T12:52:56.754Z,45.97
2023-03-13T12:55:56.125Z,46.88
2023-03-13T12:58:28.159Z,45.40
2023-03-13T13:00:56.404Z,44.83
2023-03-13T13:03:31.779Z,46.03
2023-03-13T13:06:01.440Z,45.75
2023-03-13T13:08:29.530Z,45.72
2023-03-13T13:11:13.852Z,46.92
2023-03-13T13:13:41.974Z,46.15
2023-03-13T13:16:13.252Z,46.83
2023-03-13T13:18:41.376Z,47.55
2023-03-13T13:21:26.421Z,45.88
2023-03-13T13:23:56.665Z,47.00
2023-03-13T13:26:53.014Z,46.20
2023-03-13T13:29:56.864Z,45.80
2023-03-13T13:32:36.796Z,46.95
2023-03-13T13:35:07.602Z,45.88
2023-03-13T13:37:35.771Z,47.10
2023-03-13T13:40:21.393Z,46.80
2023-03-13T13:42:52.998Z,46.50
2023-03-13T13:45:28.975Z,46.83
2023-03-13T13:48:17.719Z,46.20
2023-03-13T13:51:24.901Z,48.45
2023-03-13T13:53:56.024Z,45.58
2023-03-13T13:56:32.528Z,46.80
2023-03-13T13:59:04.515Z,47.28
2023-03-13T14:01:32.776Z,45.25
2023-03-13T14:04:06.978Z,46.92
2023-03-13T14:06:37.294Z,45.55
2023-03-13T14:09:14.614Z,46.58
2023-03-13T14:11:42.765Z,46.40
2023-03-13T14:14:14.613Z,44.45
2023-03-13T14:16:46.359Z,46.22
2023-03-13T14:19:25.362Z,44.67
2023-03-13T14:22:02.855Z,46.30
2023-03-13T14:24:30.940Z,43.67
2023-03-13T14:26:59.059Z,43.90
2023-03-13T14:29:28.968Z,43.13
2023-03-13T14:31:57.906Z,42.35
2023-03-13T14:34:26.303Z,41.63
2023-03-13T14:37:04.322Z,40.85
2023-03-13T14:39:39.270Z,40.53
2023-03-13T14:42:10.937Z,39.00
2023-03-13T14:44:41.601Z,38.60
2023-03-13T14:47:10.660Z,36.78
2023-03-13T14:49:38.748Z,34.30
2023-03-13T14:52:09.083Z,32.55
2023-03-13T14:54:38.032Z,33.40
2023-03-13T14:57:13.529Z,33.42
2023-03-13T14:59:43.294Z,33.85
2023-03-13T15:02:18.308Z,32.80
2023-03-13T15:04:51.229Z,32.33
2023-03-13T15:07:19.372Z,33.90
2023-03-13T15:09:47.868Z,32.75
2023-03-13T15:12:16.840Z,32.17
2023-03-13T15:14:46.836Z,32.08
2023-03-13T15:17:17.613Z,30.92
2023-03-13T15:19:49.809Z,22.20
2023-03-13T15:22:18.196Z,26.80
2023-03-13T15:24:59.594Z,27.05
2023-03-13T15:27:33.078Z,26.10
2023-03-13T15:30:02.614Z,25.75
2023-03-13T15:32:31.309Z,27.35
2023-03-13T15:35:01.725Z,25.90
2023-03-13T15:37:30.503Z,25.92
2023-03-13T15:39:58.720Z,26.52
2023-03-13T15:42:26.906Z,25.40
2023-03-13T15:44:54.989Z,26.10
2023-03-13T15:47:24.558Z,25.50
2023-03-13T15:49:53.466Z,26.30
2023-03-13T15:52:22.889Z,25.27
2023-03-13T15:54:51.519Z,25.42
2023-03-13T15:57:23.325Z,25.20
2023-03-13T15:59:51.737Z,24.88
2023-03-13T16:02:20.739Z,25.30
2023-03-13T16:04:50.408Z,24.35
2023-03-13T16:07:19.872Z,24.33
2023-03-13T16:09:48.010Z,24.92
2023-03-13T16:12:16.141Z,25.50
2023-03-13T16:14:44.248Z,24.38
2023-03-13T16:17:14.325Z,24.55
2023-03-13T16:19:42.565Z,24.30
2023-03-13T16:22:12.074Z,23.80
2023-03-13T16:24:40.307Z,24.52
2023-03-13T16:27:13.423Z,23.73
2023-03-13T16:29:41.550Z,23.48
2023-03-13T16:32:12.519Z,23.50
2023-03-13T16:34:40.650Z,24.08
2023-03-13T16:37:14.489Z,24.75
2023-03-13T16:39:42.858Z,26.25
2023-03-13T16:42:10.982Z,28.27
2023-03-13T16:44:39.227Z,27.85
2023-03-13T16:47:15.642Z,29.25
2023-03-13T16:49:46.263Z,31.95
2023-03-13T16:52:17.243Z,30.75
2023-03-13T16:54:46.192Z,31.30
2023-03-13T16:57:15.092Z,32.75
2023-03-13T16:59:43.201Z,33.28
2023-03-13T17:02:15.150Z,34.03
2023-03-13T17:04:44.844Z,33.22
2023-03-13T17:07:23.110Z,34.88
2023-03-13T17:09:51.538Z,34.47
2023-03-13T17:12:19.907Z,34.05
2023-03-13T17:14:48.035Z,34.28
2023-03-13T17:17:17.756Z,34.97
2023-03-13T17:19:45.881Z,35.78
2023-03-13T17:22:14.385Z,34.55
2023-03-13T17:24:43.885Z,38.95
2023-03-13T17:27:14.031Z,39.70
2023-03-13T17:29:42.407Z,40.35
2023-03-13T17:32:11.490Z,44.50
2023-03-13T17:34:39.716Z,43.15
2023-03-13T17:37:13.584Z,42.97
2023-03-13T17:39:43.751Z,46.45
2023-03-13T17:42:12.115Z,48.65
2023-03-13T17:44:41.281Z,46.65
2023-03-13T17:47:12.806Z,52.72
2023-03-13T17:49:40.967Z,46.67
2023-03-13T17:52:13.440Z,49.13
2023-03-13T17:54:43.036Z,49.67
2023-03-13T17:57:14.406Z,48.15
2023-03-13T17:59:42.595Z,49.30
2023-03-13T18:02:12.615Z,48.22
2023-03-13T18:04:40.738Z,49.38
2023-03-13T18:07:15.629Z,52.10
2023-03-13T18:09:47.626Z,51.42
2023-03-13T18:12:16.175Z,53.10
2023-03-13T18:14:44.370Z,53.45
2023-03-13T18:17:15.618Z,55.83
2023-03-13T18:19:44.397Z,61.33
2023-03-13T18:22:14.647Z,63.05
2023-03-13T18:24:44.286Z,64.13
2023-03-13T18:27:13.381Z,65.65
2023-03-13T18:29:41.500Z,66.70
2023-03-13T18:32:11.239Z,64.90
2023-03-13T18:34:39.653Z,67.10
2023-03-13T18:37:10.761Z,66.40
2023-03-13T18:39:38.899Z,69.10
2023-03-13T18:42:10.594Z,70.50
2023-03-13T18:44:38.817Z,69.20
2023-03-13T18:47:12.691Z,70.80
2023-03-13T18:49:40.849Z,76.65
2023-03-13T18:52:09.012Z,70.75
2023-03-13T18:54:37.174Z,69.63
2023-03-13T18:57:15.767Z,74.25
2023-03-13T18:59:44.202Z,70.63
2023-03-13T19:02:14.602Z,73.80
2023-03-13T19:04:43.080Z,72.00
2023-03-13T19:07:14.196Z,69.95
2023-03-13T19:09:44.072Z,69.85
2023-03-13T19:12:15.628Z,67.43
2023-03-13T19:14:44.157Z,68.55
2023-03-13T19:17:15.076Z,65.47
2023-03-13T19:19:43.342Z,68.07
2023-03-13T19:22:11.895Z,66.85
2023-03-13T19:24:40.390Z,70.10
2023-03-13T19:27:08.674Z,69.97
2023-03-13T19:29:38.245Z,72.75
2023-03-13T19:32:07.761Z,70.55
2023-03-13T19:34:35.985Z,67.85
2023-03-13T19:37:04.214Z,64.78
2023-03-13T19:39:32.353Z,69.00
2023-03-13T19:42:00.467Z,69.00
2023-03-13T19:44:29.312Z,66.63
2023-03-13T19:47:00.476Z,63.83
2023-03-13T19:49:28.779Z,65.53
2023-03-13T19:51:56.898Z,64.53
2023-03-13T19:54:25.129Z,65.72
2023-03-13T19:56:53.578Z,66.68
2023-03-13T19:59:23.215Z,66.00
2023-03-13T20:01:51.453Z,67.07
2023-03-13T20:04:20.949Z,66.72
2023-03-13T20:06:49.028Z,69.35
2023-03-13T20:09:17.898Z,67.13
2023-03-13T20:11:46.174Z,68.50
2023-03-13T20:14:14.315Z,69.65
2023-03-13T20:16:42.780Z,70.72
2023-03-13T20:19:10.916Z,71.03
2023-03-13T20:21:41.196Z,71.60
2023-03-13T20:24:09.605Z,69.53
2023-03-13T20:26:37.743Z,69.93
2023-03-13T20:29:05.799Z,69.88
2023-03-13T20:31:34.018Z,68.88
2023-03-13T20:34:02.275Z,70.13
2023-03-13T20:36:30.448Z,71.75
2023-03-13T20:38:59.998Z,70.53
2023-03-13T20:41:31.187Z,71.78
2023-03-13T20:43:59.563Z,69.97
2023-03-13T20:46:28.402Z,70.25
2023-03-13T20:48:58.870Z,69.10
2023-03-13T20:51:27.848Z,70.15
2023-03-13T20:53:55.913Z,69.80
2023-03-13T20:56:25.451Z,70.82
2023-03-13T20:58:53.676Z,68.97
2023-03-13T21:01:22.491Z,72.22
2023-03-13T21:03:50.630Z,70.13
2023-03-13T21:06:19.214Z,70.18
2023-03-13T21:08:47.422Z,69.55
2023-03-13T21:11:15.828Z,70.57
2023-03-13T21:13:45.355Z,70.00
2023-03-13T21:16:14.119Z,70.13
2023-03-13T21:18:42.401Z,70.18
2023-03-13T21:21:12.588Z,68.82
2023-03-13T21:23:40.696Z,68.88
2023-03-13T21:26:08.833Z,69.45
2023-03-13T21:28:36.969Z,68.35
2023-03-13T21:31:10.636Z,69.97
2023-03-13T21:33:38.997Z,70.57
2023-03-13T21:36:07.681Z,68.85
2023-03-13T21:38:36.401Z,69.05
2023-03-13T21:41:08.504Z,65.97
2023-03-13T21:43:37.515Z,68.25
2023-03-13T21:46:06.098Z,65.93
2023-03-13T21:48:35.622Z,67.15
2023-03-13T21:51:03.837Z,66.00
2023-03-13T21:53:31.941Z,64.85
2023-03-13T21:56:00.019Z,65.22
2023-03-13T21:58:28.271Z,65.03
2023-03-13T22:00:56.533Z,63.72
2023-03-13T22:03:26.504Z,62.95
2023-03-13T22:05:56.220Z,62.70
2023-03-13T22:08:24.340Z,62.63
2023-03-13T22:10:54.984Z,63.47
2023-03-13T22:13:23.204Z,60.53
2023-03-13T22:15:52.802Z,61.83
2023-03-13T22:18:20.955Z,62.28
2023-03-13T22:20:49.094Z,62.40
2023-03-13T22:23:18.525Z,60.17
2023-03-13T22:25:48.237Z,62.50
2023-03-13T22:28:16.519Z,58.47
2023-03-13T22:30:45.221Z,59.45
2023-03-13T22:33:13.369Z,58.60
2023-03-13T22:35:42.248Z,58.60
2023-03-13T22:38:10.352Z,57.53
2023-03-13T22:40:39.829Z,57.42
2023-03-13T22:43:07.969Z,57.05
2023-03-13T22:45:36.433Z,58.38
2023-03-13T22:48:06.514Z,56.38
2023-03-13T22:50:34.873Z,55.90
2023-03-13T22:53:03.213Z,55.85
2023-03-13T22:55:32.558Z,56.53
2023-03-13T22:58:02.068Z,55.67
2023-03-13T23:00:30.169Z,54.72
2023-03-13T23:02:58.315Z,53.80
2023-03-13T23:05:26.396Z,52.80
2023-03-13T23:07:54.522Z,52.80
2023-03-13T23:10:22.626Z,52.10
2023-03-13T23:12:50.722Z,52.78
2023-03-13T23:15:20.386Z,53.30
2023-03-13T23:17:48.518Z,52.40
2023-03-13T23:20:16.718Z,51.67
2023-03-13T23:22:45.839Z,51.50
2023-03-13T23:25:14.190Z,50.83
2023-03-13T23:27:42.411Z,51.17
2023-03-13T23:30:11.769Z,48.75
2023-03-13T23:32:42.464Z,51.40
2023-03-13T23:35:10.980Z,48.75
2023-03-13T23:37:39.047Z,48.17
2023-03-13T23:40:09.143Z,47.25
2023-03-13T23:42:37.234Z,49.05
2023-03-13T23:45:06.645Z,48.90
2023-03-13T23:47:34.768Z,46.95
2023-03-13T23:50:05.432Z,47.55
2023-03-13T23:52:35.249Z,46.88
2023-03-13T23:55:04.491Z,46.92
2023-03-13T23:57:32.636Z,45.55
